createdAt,value
2018-06-12T00:01:26.910Z,17.88
2018-06-12T00:03:55.152Z,17.78
2018-06-12T00:06:23.402Z,17.97
2018-06-12T00:08:51.648Z,17.69
2018-06-12T00:11:19.942Z,17.80
2018-06-12T00:13:48.524Z,17.68
2018-06-12T00:16:16.771Z,17.66
2018-06-12T00:18:45.016Z,17.58
2018-06-12T00:21:13.277Z,17.82
2018-06-12T00:23:41.623Z,17.64
2018-06-12T00:26:10.022Z,17.69
2018-06-12T00:28:38.247Z,17.51
2018-06-12T00:31:06.459Z,17.75
2018-06-12T00:33:34.681Z,17.72
2018-06-12T00:36:02.880Z,17.35
2018-06-12T00:38:31.104Z,17.35
2018-06-12T00:40:59.349Z,17.17
2018-06-12T00:43:27.585Z,17.45
2018-06-12T00:45:55.830Z,17.91
2018-06-12T00:48:24.121Z,17.79
2018-06-12T00:50:52.344Z,17.79
2018-06-12T00:53:20.891Z,17.66
2018-06-12T00:55:49.220Z,17.42
2018-06-12T00:58:17.449Z,16.97
2018-06-12T01:00:45.800Z,17.18
2018-06-12T01:03:14.036Z,17.57
2018-06-12T01:05:42.364Z,17.29
2018-06-12T01:08:10.620Z,17.63
2018-06-12T01:10:38.876Z,17.57
2018-06-12T01:13:07.081Z,17.68
2018-06-12T01:15:35.315Z,17.59
2018-06-12T01:18:03.554Z,17.69
2018-06-12T01:20:31.887Z,17.46
2018-06-12T01:23:00.161Z,17.45
2018-06-12T01:25:28.357Z,17.51
2018-06-12T01:27:56.624Z,17.68
2018-06-12T01:30:24.836Z,17.46
2018-06-12T01:32:53.046Z,17.67
2018-06-12T01:35:22.086Z,17.60
2018-06-12T01:37:50.324Z,17.36
2018-06-12T01:40:18.588Z,17.37
2018-06-12T01:42:46.846Z,17.14
2018-06-12T01:45:15.377Z,17.23
2018-06-12T01:47:43.580Z,17.30
2018-06-12T01:50:11.861Z,17.32
2018-06-12T01:52:40.060Z,17.34
2018-06-12T01:55:08.338Z,17.30
2018-06-12T01:57:36.564Z,17.16
2018-06-12T02:00:04.819Z,17.23
2018-06-12T02:02:33.059Z,17.44
2018-06-12T02:05:01.381Z,17.16
2018-06-12T02:07:29.634Z,17.10
2018-06-12T02:09:57.930Z,17.43
2018-06-12T02:12:26.172Z,17.37
2018-06-12T02:14:54.431Z,17.24
2018-06-12T02:17:22.718Z,17.43
2018-06-12T02:19:50.925Z,17.56
2018-06-12T02:22:19.207Z,17.48
2018-06-12T02:24:47.408Z,17.12
2018-06-12T02:27:15.650Z,17.30
2018-06-12T02:29:43.865Z,17.21
2018-06-12T02:32:12.091Z,17.17
2018-06-12T02:34:40.303Z,17.13
2018-06-12T02:37:08.549Z,17.21
2018-06-12T02:39:36.840Z,17.45
2018-06-12T02:42:05.105Z,17.47
2018-06-12T02:44:33.385Z,17.30
2018-06-12T02:47:01.621Z,17.26
2018-06-12T02:49:29.893Z,17.42
2018-06-12T02:51:58.153Z,17.28
2018-06-12T02:54:26.367Z,17.31
2018-06-12T02:56:54.646Z,17.27
2018-06-12T02:59:22.838Z,17.37
2018-06-12T03:01:51.049Z,17.16
2018-06-12T03:04:19.265Z,17.21
2018-06-12T03:06:47.570Z,17.15
2018-06-12T03:09:15.772Z,17.05
2018-06-12T03:11:43.999Z,17.37
2018-06-12T03:14:12.241Z,17.18
2018-06-12T03:16:40.535Z,17.47
2018-06-12T03:19:08.761Z,17.25
2018-06-12T03:21:37.041Z,17.32
2018-06-12T03:24:05.271Z,17.23
2018-06-12T03:26:33.557Z,17.17
2018-06-12T03:29:01.747Z,17.29
2018-06-12T03:31:29.975Z,17.23
2018-06-12T03:33:58.235Z,17.02
2018-06-12T03:36:26.503Z,17.12
2018-06-12T03:38:54.731Z,17.14
2018-06-12T03:41:22.994Z,17.13
2018-06-12T03:43:51.264Z,17.22
2018-06-12T03:46:19.470Z,17.19
2018-06-12T03:48:47.776Z,17.28
2018-06-12T03:51:16.007Z,17.26
2018-06-12T03:53:44.251Z,17.35
2018-06-12T03:56:12.452Z,17.12
2018-06-12T03:58:40.665Z,17.27
2018-06-12T04:01:09.642Z,17.22
2018-06-12T04:03:37.978Z,17.08
2018-06-12T04:06:06.255Z,17.12
2018-06-12T04:08:34.557Z,17.14
2018-06-12T04:11:03.416Z,17.10
2018-06-12T04:13:31.663Z,16.98
2018-06-12T04:15:59.888Z,17.11
2018-06-12T04:18:28.125Z,17.06
2018-06-12T04:20:56.363Z,16.84
2018-06-12T04:23:24.569Z,17.01
2018-06-12T04:25:52.821Z,16.88
2018-06-12T04:28:21.038Z,17.04
2018-06-12T04:30:49.292Z,16.99
2018-06-12T04:33:17.536Z,17.00
2018-06-12T04:35:45.816Z,16.97
2018-06-12T04:38:14.045Z,16.88
2018-06-12T04:40:42.296Z,16.95
2018-06-12T04:43:10.547Z,17.40
2018-06-12T04:45:38.789Z,17.36
2018-06-12T04:48:07.030Z,17.24
2018-06-12T04:50:35.288Z,17.39
2018-06-12T04:53:03.536Z,17.31
2018-06-12T04:55:31.772Z,17.12
2018-06-12T04:58:00.032Z,17.32
2018-06-12T05:00:28.251Z,17.13
2018-06-12T05:02:56.532Z,17.23
2018-06-12T05:05:24.767Z,17.22
2018-06-12T05:07:53.017Z,17.06
2018-06-12T05:10:21.265Z,17.17
2018-06-12T05:12:49.580Z,17.18
2018-06-12T05:15:17.807Z,16.97
2018-06-12T05:17:46.015Z,17.24
2018-06-12T05:20:14.264Z,17.25
2018-06-12T05:22:42.523Z,17.18
2018-06-12T05:25:10.919Z,17.28
2018-06-12T05:27:40.279Z,17.02
2018-06-12T05:30:08.576Z,17.35
2018-06-12T05:32:36.832Z,17.21
2018-06-12T05:35:06.122Z,17.19
2018-06-12T05:37:34.461Z,17.12
2018-06-12T05:40:02.716Z,17.30
2018-06-12T05:42:30.952Z,17.48
2018-06-12T05:44:59.246Z,17.39
2018-06-12T05:47:27.498Z,17.44
2018-06-12T05:49:55.775Z,17.40
2018-06-12T05:52:23.999Z,17.34
2018-06-12T05:54:52.280Z,17.36
2018-06-12T05:57:20.519Z,17.12
2018-06-12T05:59:48.733Z,17.23
2018-06-12T06:02:17.001Z,17.21
2018-06-12T06:04:45.318Z,17.39
2018-06-12T06:07:13.556Z,17.39
2018-06-12T06:09:41.821Z,17.61
2018-06-12T06:12:10.042Z,17.64
2018-06-12T06:14:38.279Z,17.27
2018-06-12T06:17:06.556Z,17.53
2018-06-12T06:19:34.824Z,17.70
2018-06-12T06:22:03.047Z,17.53
2018-06-12T06:24:31.363Z,17.72
2018-06-12T06:26:59.618Z,17.61
2018-06-12T06:29:28.153Z,17.34
2018-06-12T06:31:56.612Z,17.81
2018-06-12T06:34:24.908Z,17.73
2018-06-12T06:36:53.193Z,17.75
2018-06-12T06:39:21.467Z,17.62
2018-06-12T06:41:49.829Z,17.54
2018-06-12T06:44:18.117Z,17.37
2018-06-12T06:46:46.400Z,17.51
2018-06-12T06:49:14.597Z,17.60
2018-06-12T06:51:42.815Z,17.50
2018-06-12T06:54:11.018Z,17.45
2018-06-12T06:56:39.298Z,17.60
2018-06-12T06:59:07.542Z,17.71
2018-06-12T07:01:36.035Z,17.88
2018-06-12T07:04:04.280Z,18.08
2018-06-12T07:06:32.484Z,18.11
2018-06-12T07:09:00.781Z,18.29
2018-06-12T07:11:29.112Z,18.19
2018-06-12T07:13:57.397Z,18.12
2018-06-12T07:16:25.659Z,17.71
2018-06-12T07:18:53.920Z,18.10
2018-06-12T07:21:23.943Z,18.08
2018-06-12T07:23:52.232Z,17.84
2018-06-12T07:26:20.486Z,17.84
2018-06-12T07:28:48.730Z,17.91
2018-06-12T07:31:16.991Z,17.72
2018-06-12T07:33:45.343Z,17.97
2018-06-12T07:36:13.647Z,17.99
2018-06-12T07:38:41.915Z,17.86
2018-06-12T07:41:10.148Z,17.82
2018-06-12T07:43:38.422Z,17.75
2018-06-12T07:46:06.640Z,17.76
2018-06-12T07:48:34.876Z,17.86
2018-06-12T07:51:03.077Z,17.75
2018-06-12T07:53:31.423Z,17.78
2018-06-12T07:55:59.696Z,17.51
2018-06-12T07:58:27.970Z,17.72
2018-06-12T08:00:56.896Z,18.01
2018-06-12T08:03:25.166Z,18.09
2018-06-12T08:05:53.535Z,17.60
2018-06-12T08:08:21.737Z,17.83
2018-06-12T08:10:50.035Z,17.85
2018-06-12T08:13:18.310Z,18.14
2018-06-12T08:15:46.557Z,18.02
2018-06-12T08:18:14.856Z,17.97
2018-06-12T08:20:43.104Z,17.92
2018-06-12T08:23:11.348Z,18.16
2018-06-12T08:25:39.763Z,17.88
2018-06-12T08:28:08.135Z,17.70
2018-06-12T08:30:36.423Z,17.85
2018-06-12T08:33:04.672Z,17.98
2018-06-12T08:35:32.973Z,17.76
2018-06-12T08:38:01.245Z,18.00
2018-06-12T08:40:29.517Z,18.18
2018-06-12T08:42:57.844Z,18.35
2018-06-12T08:45:26.132Z,18.42
2018-06-12T08:47:54.393Z,18.58
2018-06-12T08:50:22.611Z,18.82
2018-06-12T08:52:50.925Z,18.79
2018-06-12T08:55:19.168Z,18.61
2018-06-12T08:57:47.412Z,18.57
2018-06-12T09:00:15.669Z,18.60
2018-06-12T09:02:43.986Z,18.80
2018-06-12T09:05:12.217Z,18.67
2018-06-12T09:07:40.490Z,18.55
2018-06-12T09:10:08.778Z,18.91
2018-06-12T09:12:37.073Z,18.69
2018-06-12T09:15:05.479Z,18.73
2018-06-12T09:17:33.703Z,18.55
2018-06-12T09:20:01.976Z,18.80
2018-06-12T09:22:30.265Z,18.51
2018-06-12T09:24:58.503Z,18.77
2018-06-12T09:27:26.816Z,18.75
2018-06-12T09:29:55.120Z,18.80
2018-06-12T09:32:23.409Z,18.48
2018-06-12T09:34:51.716Z,18.37
2018-06-12T09:37:19.987Z,18.35
2018-06-12T09:39:48.309Z,18.65
2018-06-12T09:42:16.581Z,18.61
2018-06-12T09:44:44.811Z,18.71
2018-06-12T09:47:13.039Z,18.79
2018-06-12T09:49:41.345Z,18.60
2018-06-12T09:52:09.600Z,18.51
2018-06-12T09:54:37.974Z,18.82
2018-06-12T09:57:06.246Z,18.56
2018-06-12T09:59:34.462Z,18.75
2018-06-12T10:02:02.714Z,18.88
2018-06-12T10:04:30.987Z,18.76
2018-06-12T10:06:59.247Z,19.00
2018-06-12T10:09:27.463Z,18.89
2018-06-12T10:11:55.708Z,18.81
2018-06-12T10:14:24.072Z,19.01
2018-06-12T10:16:52.309Z,19.02
2018-06-12T10:19:20.536Z,18.89
2018-06-12T10:21:48.775Z,18.86
2018-06-12T10:24:17.005Z,18.96
2018-06-12T10:26:45.237Z,18.95
2018-06-12T10:29:13.440Z,18.90
2018-06-12T10:31:41.649Z,19.11
2018-06-12T10:34:09.902Z,19.42
2018-06-12T10:36:38.119Z,19.31
2018-06-12T10:39:08.049Z,19.37
2018-06-12T10:41:36.340Z,19.36
2018-06-12T10:44:04.553Z,19.51
2018-06-12T10:46:32.827Z,19.30
2018-06-12T10:49:01.104Z,19.46
2018-06-12T10:51:29.293Z,19.53
2018-06-12T10:53:57.550Z,19.48
2018-06-12T10:56:25.761Z,19.61
2018-06-12T10:58:54.154Z,19.67
2018-06-12T11:01:22.414Z,19.68
2018-06-12T11:03:50.768Z,19.65
2018-06-12T11:06:18.988Z,19.63
2018-06-12T11:08:47.178Z,19.61
2018-06-12T11:11:15.390Z,19.64
2018-06-12T11:13:43.693Z,19.37
2018-06-12T11:16:11.951Z,19.26
2018-06-12T11:18:40.197Z,19.13
2018-06-12T11:21:08.530Z,19.24
2018-06-12T11:23:36.808Z,19.09
2018-06-12T11:26:05.137Z,19.24
2018-06-12T11:28:33.359Z,19.09
2018-06-12T11:31:01.575Z,19.09
2018-06-12T11:33:29.834Z,18.91
2018-06-12T11:35:58.100Z,19.13
2018-06-12T11:38:26.347Z,19.33
2018-06-12T11:40:54.591Z,19.60
2018-06-12T11:43:22.836Z,19.73
2018-06-12T11:45:51.077Z,19.49
2018-06-12T11:48:19.289Z,19.72
2018-06-12T11:50:47.536Z,19.73
2018-06-12T11:53:15.776Z,19.96
2018-06-12T11:55:44.960Z,19.65
2018-06-12T11:58:13.202Z,19.39
2018-06-12T12:00:41.428Z,19.55
2018-06-12T12:03:09.656Z,19.41
2018-06-12T12:05:37.942Z,19.92
2018-06-12T12:08:06.237Z,19.88
2018-06-12T12:10:34.488Z,20.08
2018-06-12T12:13:02.786Z,20.07
2018-06-12T12:15:31.045Z,20.31
2018-06-12T12:17:59.314Z,20.43
2018-06-12T12:20:27.552Z,20.16
2018-06-12T12:22:55.798Z,20.14
2018-06-12T12:25:23.988Z,20.26
2018-06-12T12:27:52.283Z,19.98
2018-06-12T12:30:20.518Z,20.15
2018-06-12T12:32:48.759Z,19.71
2018-06-12T12:35:17.001Z,19.43
2018-06-12T12:37:45.202Z,19.40
2018-06-12T12:40:13.447Z,19.86
2018-06-12T12:42:41.717Z,19.89
2018-06-12T12:45:09.985Z,19.55
2018-06-12T12:47:38.219Z,19.73
2018-06-12T12:50:06.528Z,19.81
2018-06-12T12:52:34.840Z,19.80
2018-06-12T12:55:03.256Z,20.03
2018-06-12T12:57:31.511Z,20.07
2018-06-12T12:59:59.813Z,20.06
2018-06-12T13:02:28.042Z,19.99
2018-06-12T13:04:56.292Z,20.17
2018-06-12T13:07:24.516Z,20.07
2018-06-12T13:09:52.773Z,19.94
2018-06-12T13:12:21.034Z,19.98
2018-06-12T13:14:49.321Z,20.02
2018-06-12T13:17:17.596Z,19.57
2018-06-12T13:19:45.799Z,19.62
2018-06-12T13:22:14.087Z,19.34
2018-06-12T13:24:42.299Z,19.39
2018-06-12T13:27:10.589Z,19.25
2018-06-12T13:29:38.837Z,19.34
2018-06-12T13:32:07.104Z,19.50
2018-06-12T13:34:35.323Z,19.37
2018-06-12T13:37:03.592Z,19.64
2018-06-12T13:39:31.836Z,19.70
2018-06-12T13:42:00.079Z,20.01
2018-06-12T13:44:28.455Z,20.03
2018-06-12T13:46:56.704Z,20.00
2018-06-12T13:49:25.043Z,20.31
2018-06-12T13:51:53.371Z,20.36
2018-06-12T13:54:21.684Z,19.93
2018-06-12T13:56:49.995Z,19.73
2018-06-12T13:59:18.316Z,19.63
2018-06-12T14:01:46.603Z,19.77
2018-06-12T14:04:14.840Z,19.63
2018-06-12T14:06:43.095Z,19.88
2018-06-12T14:09:11.322Z,19.71
2018-06-12T14:11:39.561Z,19.66
2018-06-12T14:14:07.788Z,19.61
2018-06-12T14:16:36.008Z,19.85
2018-06-12T14:19:04.225Z,19.92
2018-06-12T14:21:32.583Z,20.06
2018-06-12T14:24:00.813Z,20.00
2018-06-12T14:26:29.052Z,20.23
2018-06-12T14:28:57.328Z,20.27
2018-06-12T14:31:25.556Z,19.68
2018-06-12T14:33:53.827Z,19.66
2018-06-12T14:36:22.074Z,19.68
2018-06-12T14:38:50.304Z,19.44
2018-06-12T14:41:18.583Z,19.40
2018-06-12T14:43:46.832Z,19.80
2018-06-12T14:46:15.094Z,19.97
2018-06-12T14:48:43.368Z,19.92
2018-06-12T14:51:11.601Z,20.01
2018-06-12T14:53:40.814Z,20.01
2018-06-12T14:56:09.108Z,19.94
2018-06-12T14:58:37.298Z,20.12
2018-06-12T15:01:05.574Z,19.89
2018-06-12T15:03:33.829Z,19.69
2018-06-12T15:06:02.804Z,19.84
2018-06-12T15:08:31.134Z,19.72
2018-06-12T15:11:00.178Z,19.85
2018-06-12T15:13:28.402Z,19.32
2018-06-12T15:15:56.637Z,19.58
2018-06-12T15:18:24.868Z,19.73
2018-06-12T15:20:53.158Z,19.74
2018-06-12T15:23:21.421Z,19.47
2018-06-12T15:25:49.801Z,19.37
2018-06-12T15:28:18.065Z,19.48
2018-06-12T15:30:46.327Z,19.37
2018-06-12T15:33:14.643Z,19.74
2018-06-12T15:35:42.856Z,19.58
2018-06-12T15:38:11.089Z,19.09
2018-06-12T15:40:39.376Z,19.58
2018-06-12T15:43:07.658Z,19.46
2018-06-12T15:45:35.873Z,19.51
2018-06-12T15:48:04.160Z,19.61
2018-06-12T15:50:32.437Z,19.75
2018-06-12T15:53:00.631Z,19.87
2018-06-12T15:55:28.879Z,19.95
2018-06-12T15:57:57.128Z,19.85
2018-06-12T16:00:25.381Z,19.56
2018-06-12T16:02:54.716Z,19.65
2018-06-12T16:05:23.054Z,19.70
2018-06-12T16:07:51.285Z,19.49
2018-06-12T16:10:19.575Z,19.49
2018-06-12T16:12:48.367Z,19.54
2018-06-12T16:15:16.601Z,19.34
2018-06-12T16:17:44.863Z,19.31
2018-06-12T16:20:13.172Z,19.04
2018-06-12T16:22:42.244Z,19.35
2018-06-12T16:25:10.507Z,19.03
2018-06-12T16:27:38.752Z,19.02
2018-06-12T16:30:07.051Z,19.03
2018-06-12T16:32:35.345Z,19.12
2018-06-12T16:35:03.588Z,18.99
2018-06-12T16:37:32.269Z,19.51
2018-06-12T16:40:00.468Z,19.53
2018-06-12T16:42:29.262Z,19.21
2018-06-12T16:44:57.455Z,19.44
2018-06-12T16:47:25.705Z,19.24
2018-06-12T16:49:54.209Z,19.32
2018-06-12T16:52:22.470Z,19.10
2018-06-12T16:54:50.718Z,19.32
2018-06-12T16:57:18.997Z,19.32
2018-06-12T16:59:47.228Z,19.49
2018-06-12T17:02:15.499Z,19.36
2018-06-12T17:04:43.786Z,19.34
2018-06-12T17:07:12.026Z,19.21
2018-06-12T17:09:40.304Z,19.10
2018-06-12T17:12:08.556Z,19.31
2018-06-12T17:14:36.828Z,19.28
2018-06-12T17:17:05.101Z,19.22
2018-06-12T17:19:33.330Z,19.12
2018-06-12T17:22:01.766Z,19.29
2018-06-12T17:24:30.435Z,18.94
2018-06-12T17:26:58.715Z,18.96
2018-06-12T17:29:26.948Z,18.72
2018-06-12T17:31:55.167Z,19.20
2018-06-12T17:34:23.491Z,18.81
2018-06-12T17:36:51.718Z,18.72
2018-06-12T17:39:20.069Z,18.74
2018-06-12T17:41:48.349Z,18.89
2018-06-12T17:44:16.552Z,18.63
2018-06-12T17:46:44.842Z,18.73
2018-06-12T17:49:13.051Z,18.77
2018-06-12T17:51:41.284Z,18.90
2018-06-12T17:54:09.544Z,18.98
2018-06-12T17:56:37.772Z,18.73
2018-06-12T17:59:06.028Z,19.12
2018-06-12T18:01:34.286Z,18.88
2018-06-12T18:04:02.522Z,18.81
2018-06-12T18:06:30.749Z,18.74
2018-06-12T18:08:59.013Z,18.67
2018-06-12T18:11:27.219Z,18.60
2018-06-12T18:13:55.505Z,18.76
2018-06-12T18:16:23.754Z,18.74
2018-06-12T18:18:52.044Z,18.77
2018-06-12T18:21:20.263Z,18.61
2018-06-12T18:23:48.580Z,18.62
2018-06-12T18:26:16.858Z,19.00
2018-06-12T18:28:45.222Z,18.50
2018-06-12T18:31:13.537Z,18.43
2018-06-12T18:33:41.841Z,18.34
2018-06-12T18:36:10.113Z,18.37
2018-06-12T18:38:38.379Z,18.75
2018-06-12T18:41:06.618Z,18.41
2018-06-12T18:43:34.857Z,18.44
2018-06-12T18:46:03.084Z,18.45
2018-06-12T18:48:31.316Z,18.29
2018-06-12T18:51:00.360Z,18.30
2018-06-12T18:53:28.607Z,18.46
2018-06-12T18:55:56.855Z,18.30
2018-06-12T18:58:25.270Z,18.34
2018-06-12T19:00:53.583Z,18.26
2018-06-12T19:03:21.870Z,18.52
2018-06-12T19:05:50.098Z,18.26
2018-06-12T19:08:18.420Z,18.45
2018-06-12T19:10:46.731Z,18.50
2018-06-12T19:13:15.090Z,18.57
2018-06-12T19:15:43.605Z,18.60
2018-06-12T19:18:11.930Z,18.32
2018-06-12T19:20:40.219Z,18.29
2018-06-12T19:23:08.502Z,18.47
2018-06-12T19:25:36.768Z,18.38
2018-06-12T19:28:05.091Z,18.22
2018-06-12T19:30:33.463Z,18.60
2018-06-12T19:33:01.669Z,18.49
2018-06-12T19:35:30.017Z,18.31
2018-06-12T19:37:58.288Z,18.50
2018-06-12T19:40:26.591Z,18.60
2018-06-12T19:42:54.813Z,17.96
2018-06-12T19:45:23.139Z,18.08
2018-06-12T19:47:51.460Z,18.06
2018-06-12T19:50:19.801Z,18.04
2018-06-12T19:52:48.059Z,18.26
2018-06-12T19:55:16.347Z,18.30
2018-06-12T19:57:46.530Z,17.60
2018-06-12T20:00:17.144Z,17.96
2018-06-12T20:02:45.319Z,18.08
2018-06-12T20:05:13.522Z,17.74
2018-06-12T20:07:41.789Z,17.73
2018-06-12T20:10:10.016Z,17.85
2018-06-12T20:12:38.320Z,18.11
2018-06-12T20:15:06.549Z,18.14
2018-06-12T20:17:34.819Z,17.96
2018-06-12T20:20:03.055Z,18.00
2018-06-12T20:22:31.304Z,17.91
2018-06-12T20:24:59.634Z,18.12
2018-06-12T20:27:28.011Z,17.99
2018-06-12T20:29:56.304Z,17.90
2018-06-12T20:32:24.540Z,18.08
2018-06-12T20:34:52.818Z,18.13
2018-06-12T20:37:21.045Z,17.98
2018-06-12T20:39:49.281Z,17.77
2018-06-12T20:42:17.486Z,17.88
2018-06-12T20:44:45.785Z,17.83
2018-06-12T20:47:14.053Z,18.01
2018-06-12T20:49:42.475Z,17.82
2018-06-12T20:52:10.861Z,17.78
2018-06-12T20:54:39.114Z,17.79
2018-06-12T20:57:07.475Z,17.99
2018-06-12T20:59:35.768Z,17.89
2018-06-12T21:02:04.034Z,17.91
2018-06-12T21:04:32.268Z,18.00
2018-06-12T21:07:00.643Z,17.76
2018-06-12T21:09:28.820Z,17.93
2018-06-12T21:11:57.080Z,17.45
2018-06-12T21:14:25.304Z,17.48
2018-06-12T21:16:53.533Z,17.68
2018-06-12T21:19:21.830Z,17.50
2018-06-12T21:21:50.136Z,17.83
2018-06-12T21:24:18.378Z,17.56
2018-06-12T21:26:46.775Z,17.92
2018-06-12T21:29:15.022Z,17.73
2018-06-12T21:31:43.321Z,17.73
2018-06-12T21:34:11.688Z,17.76
2018-06-12T21:36:39.998Z,17.72
2018-06-12T21:39:08.499Z,17.54
2018-06-12T21:41:36.778Z,17.69
2018-06-12T21:44:05.152Z,17.52
2018-06-12T21:46:33.365Z,17.40
2018-06-12T21:49:01.585Z,17.41
2018-06-12T21:51:29.896Z,17.57
2018-06-12T21:53:58.221Z,17.60
2018-06-12T21:56:26.448Z,17.71
2018-06-12T21:58:54.826Z,17.31
2018-06-12T22:01:23.012Z,17.34
2018-06-12T22:03:51.415Z,17.50
2018-06-12T22:06:20.331Z,17.53
2018-06-12T22:08:48.651Z,17.32
2018-06-12T22:11:16.896Z,17.38
2018-06-12T22:13:45.104Z,17.51
2018-06-12T22:16:22.016Z,17.37
2018-06-12T22:18:50.765Z,17.40
2018-06-12T22:21:19.698Z,17.30
2018-06-12T22:23:48.003Z,17.20
2018-06-12T22:26:16.240Z,17.07
2018-06-12T22:28:45.534Z,17.34
2018-06-12T22:31:17.892Z,17.36
2018-06-12T22:33:47.715Z,17.34
2018-06-12T22:36:16.131Z,17.22
2018-06-12T22:38:44.417Z,17.19
2018-06-12T22:41:12.658Z,17.15
2018-06-12T22:43:40.944Z,17.08
2018-06-12T22:46:09.318Z,17.12
2018-06-12T22:48:37.629Z,17.32
2018-06-12T22:51:05.928Z,17.12
2018-06-12T22:53:34.225Z,17.02
2018-06-12T22:56:02.525Z,17.20
2018-06-12T22:58:30.844Z,17.03
2018-06-12T23:00:59.147Z,16.87
2018-06-12T23:03:27.384Z,16.86
2018-06-12T23:05:55.704Z,17.17
2018-06-12T23:08:24.018Z,17.13
2018-06-12T23:10:52.330Z,16.96
2018-06-12T23:13:20.591Z,16.87
2018-06-12T23:15:48.848Z,16.79
2018-06-12T23:18:17.112Z,16.60
2018-06-12T23:21:57.819Z,16.75
2018-06-12T23:24:26.154Z,16.69
2018-06-12T23:26:54.426Z,16.97
2018-06-12T23:29:22.642Z,16.75
2018-06-12T23:31:50.856Z,16.74
2018-06-12T23:34:19.154Z,16.62
2018-06-12T23:36:47.459Z,16.70
2018-06-12T23:39:15.807Z,16.44
2018-06-12T23:41:44.025Z,16.89
2018-06-12T23:44:12.267Z,16.72
2018-06-12T23:46:40.482Z,16.66
2018-06-12T23:49:08.763Z,16.90
2018-06-12T23:51:36.975Z,16.91
2018-06-12T23:54:05.267Z,16.90
2018-06-12T23:56:33.534Z,17.09
2018-06-12T23:59:01.831Z,16.91
